»·PEaware :: N933VL KLAX-KSAN

N933VL :: KLAX-KSAN

FLIGHT INFORMATION

Flight Status: Arrived
Operator: Privately registered:
United States
More flights under this callsign
Pilot: Greg C. (27677)
Aircraft: CESSNA 172 SKYHAWK
(C172)
More flights by this aircraft type
Origin: KLAX Los Angeles Intl
United States
Destination: KSAN San Diego Intl-Lindbergh
United States
More flights between these airports :: More routes between these airports
Route: ALBAS PACIF SARGS
File this flight plan on PilotEdge
Remarks:
Altitude:
(Current/Filed)
5,500ft
Speed:
(Current/Filed)
115kts
Departed: 05-Feb-20 08:59 PM
Arrived: 05-Feb-20 09:53 PM
Distance/Time
Traveled:
95nm/0:53
Distance/Time
To Go:
Arrived

Flight Plot

Page will automatically refresh every two minutes.

Flight plan parsing failed; only flown route is shown


Map Options




Map Legend


Flown Route
Filed Route
Departure Airport
Arrival Airport
Navaid (VOR, NDB)
Fix

Horizontal Profiles

Position Reports

Time Latitude Longitude Heading Altitude Ground
Speed
05-Feb-20 20:15 33.933448 -118.399958 83 112ft 0kts
05-Feb-20 20:16 33.933448 -118.399958 83 112ft 0kts
05-Feb-20 20:17 33.933448 -118.399958 83 112ft 0kts
05-Feb-20 20:18 33.933448 -118.399958 83 112ft 0kts
05-Feb-20 20:19 33.933448 -118.399958 83 112ft 0kts
05-Feb-20 20:19 33.933448 -118.399958 83 112ft 0kts
05-Feb-20 20:21 33.933448 -118.399958 83 112ft 0kts
05-Feb-20 20:22 33.933448 -118.399958 83 112ft 0kts
05-Feb-20 20:22 33.933448 -118.399958 83 112ft 0kts
05-Feb-20 20:23 33.933448 -118.399958 83 112ft 0kts
05-Feb-20 20:25 33.933448 -118.399958 83 112ft 0kts
05-Feb-20 20:25 33.933448 -118.399958 83 112ft 0kts
05-Feb-20 20:26 33.933448 -118.399958 83 112ft 0kts
05-Feb-20 20:28 33.933448 -118.399958 83 112ft 0kts
05-Feb-20 20:28 33.933448 -118.399958 83 112ft 0kts
05-Feb-20 20:29 33.933448 -118.399958 83 112ft 0kts
05-Feb-20 20:30 33.933448 -118.399958 83 112ft 0kts
05-Feb-20 20:31 33.933448 -118.399958 83 112ft 0kts
05-Feb-20 20:32 33.933448 -118.399958 83 112ft 0kts
05-Feb-20 20:33 33.933448 -118.399958 83 112ft 0kts
05-Feb-20 20:34 33.933448 -118.399958 83 112ft 0kts
05-Feb-20 20:35 33.933448 -118.399958 83 112ft 0kts
05-Feb-20 20:36 33.933448 -118.399958 83 112ft 0kts
05-Feb-20 20:37 33.933448 -118.399958 83 112ft 0kts
05-Feb-20 20:38 33.933448 -118.399958 83 112ft 0kts
05-Feb-20 20:39 33.933448 -118.399958 83 112ft 0kts
05-Feb-20 20:40 33.933448 -118.399958 83 112ft 0kts
05-Feb-20 20:41 33.933448 -118.399958 83 112ft 0kts
05-Feb-20 20:42 33.933448 -118.399958 83 112ft 0kts
05-Feb-20 20:43 33.933448 -118.399958 83 112ft 0kts
05-Feb-20 20:44 33.933448 -118.399958 83 112ft 0kts
05-Feb-20 20:45 33.933448 -118.399958 83 112ft 0kts
05-Feb-20 20:46 33.933448 -118.399958 83 112ft 0kts
05-Feb-20 20:47 33.933448 -118.399958 83 112ft 0kts
05-Feb-20 20:48 33.933448 -118.399958 83 112ft 0kts
05-Feb-20 20:49 33.933448 -118.399958 83 112ft 0kts
05-Feb-20 20:50 33.933448 -118.399958 83 112ft 0kts
05-Feb-20 20:51 33.933448 -118.399958 83 112ft 0kts
05-Feb-20 20:52 33.933591 -118.399228 66 110ft 11kts
05-Feb-20 20:53 33.934548 -118.397926 64 109ft 9kts
05-Feb-20 20:54 33.935514 -118.388576 82 99ft 33kts
05-Feb-20 20:55 33.936476 -118.382815 10 96ft 0kts
05-Feb-20 20:56 33.936476 -118.382815 10 96ft 0kts
05-Feb-20 20:57 33.936826 -118.382852 347 96ft 10kts
05-Feb-20 20:58 33.935406 -118.401450 262 470ft 102kts
05-Feb-20 20:59 33.932727 -118.431376 268 1930ft 72kts
05-Feb-20 21:00 33.930152 -118.460428 252 2487ft 126kts
05-Feb-20 21:01 33.896893 -118.468856 176 2483ft 108kts
05-Feb-20 21:02 33.870163 -118.463772 172 2854ft 87kts
05-Feb-20 21:03 33.847846 -118.458201 172 3902ft 82kts
05-Feb-20 21:04 33.825317 -118.452406 173 4825ft 84kts
05-Feb-20 21:05 33.800036 -118.445059 168 5498ft 125kts
05-Feb-20 21:06 33.773967 -118.435299 159 5488ft 143kts
05-Feb-20 21:07 33.742976 -118.411047 136 5487ft 115kts
05-Feb-20 21:08 33.723978 -118.385395 125 5488ft 92kts
05-Feb-20 21:09 33.712109 -118.357954 112 5493ft 99kts
05-Feb-20 21:10 33.701295 -118.326093 112 5493ft 108kts
05-Feb-20 21:11 33.689203 -118.289023 112 5492ft 128kts
05-Feb-20 21:12 33.675454 -118.246889 110 5490ft 139kts
05-Feb-20 21:13 33.661240 -118.203386 109 5490ft 139kts
05-Feb-20 21:14 33.647278 -118.160707 108 5499ft 136kts
05-Feb-20 21:15 33.633428 -118.118653 111 5499ft 134kts
05-Feb-20 21:16 33.607827 -118.085881 137 5499ft 135kts
05-Feb-20 21:17 33.579902 -118.055664 128 5490ft 133kts
05-Feb-20 21:18 33.555333 -118.022189 128 5490ft 133kts
05-Feb-20 21:19 33.530294 -117.988192 128 5493ft 146kts
05-Feb-20 21:20 33.502325 -117.949735 128 5490ft 154kts
05-Feb-20 21:21 33.473972 -117.910679 128 5490ft 155kts
05-Feb-20 21:22 33.445614 -117.871607 127 5490ft 155kts
05-Feb-20 21:23 33.417328 -117.832741 127 5492ft 155kts
05-Feb-20 21:24 33.388844 -117.794168 127 5494ft 154kts
05-Feb-20 21:25 33.360247 -117.756024 127 5496ft 153kts
05-Feb-20 21:26 33.331714 -117.718389 127 5498ft 152kts
05-Feb-20 21:27 33.303165 -117.681018 127 5499ft 151kts
05-Feb-20 21:28 33.274547 -117.643719 127 5500ft 151kts
05-Feb-20 21:29 33.246860 -117.607865 127 5499ft 141kts
05-Feb-20 21:30 33.220418 -117.573916 127 5498ft 138kts
05-Feb-20 21:31 33.194251 -117.540270 127 5497ft 138kts
05-Feb-20 21:32 33.168077 -117.506538 127 5488ft 138kts
05-Feb-20 21:33 33.141874 -117.472657 127 5463ft 138kts
05-Feb-20 21:34 33.116048 -117.439230 127 5460ft 136kts
05-Feb-20 21:35 33.090205 -117.405861 127 5458ft 136kts
05-Feb-20 21:36 33.066254 -117.375534 127 5449ft 102kts
05-Feb-20 21:37 33.046470 -117.353113 131 5453ft 96kts
05-Feb-20 21:38 33.026364 -117.332540 132 5453ft 89kts
05-Feb-20 21:39 33.006082 -117.318374 154 5455ft 84kts
05-Feb-20 21:40 32.983807 -117.309729 153 5460ft 88kts
05-Feb-20 21:41 32.959032 -117.299755 153 5459ft 97kts
05-Feb-20 21:42 32.931411 -117.288551 155 5463ft 116kts
05-Feb-20 21:43 32.898490 -117.275285 156 5464ft 130kts
05-Feb-20 21:44 32.866574 -117.262377 157 4426ft 137kts
05-Feb-20 21:45 32.835462 -117.249913 156 3466ft 91kts
05-Feb-20 21:46 32.812654 -117.237191 148 3470ft 90kts
05-Feb-20 21:47 32.789886 -117.223474 148 3349ft 102kts
05-Feb-20 21:48 32.764556 -117.208329 150 1945ft 105kts
05-Feb-20 21:49 32.745230 -117.191452 117 684ft 67kts
05-Feb-20 21:50 32.740233 -117.171211 96 931ft 63kts
05-Feb-20 21:51 32.731650 -117.181762 288 20ft 55kts
05-Feb-20 21:52 32.733060 -117.184254 5 16ft 0kts
05-Feb-20 21:53 32.733219 -117.183381 110 17ft 17kts
05-Feb-20 21:54 32.732831 -117.178650 333 20ft 0kts
05-Feb-20 21:55 32.732831 -117.178650 333 20ft 0kts
05-Feb-20 21:56 32.732831 -117.178650 333 20ft 0kts
05-Feb-20 21:57 32.732831 -117.178650 333 20ft 0kts

Navigation Log

Ident Type
Flight plan parsing failed, navigation log unavailable